Kezdőlap
METAR-TAF:

METAR-TAF

Repülőterek :

Dakar, Szenegál

földrajzi szélesség: 14-44N, földrajzi hosszúság: 017-30W, magasság: 27 m

Jelenlegi meteorológiai megfigyelések

A jelentés 22 perccel ezelõtt készült, 11:00 UTC
Északi szél 10 kt
Hőmérséklet 29°C
Páratartalom 79%
Légköri nyomás 1012 hPa
Látótávolság 10 km, vagy több
felhőtlen 1500 m magasságban, és nincs gomolyfelhõ

METAR: GOOY 181100Z 36010KT CAVOK 29/25 Q1012

Idő: 11:22 (11:22 UTC)

Előrejelzés

A jelentés 5 órával és 52 perccel ezelõtt készült, 05:30 UTC
Az előrejelzés 18-én 06 óra UTC és 19-én 12 óra UTC között érvényes
Északi szél 11 kt
Látótávolság 10 km, vagy több
Szórványos felhőzet 1300 lábon

TAF: GOOY 180530Z 1806/1912 36011KT 9999 SCT013

Meteorológiai megfigyelések és előrejelzések több, mint 4000 repülőtéren (METAR és TAF jelentéseket).

A térképen piros és sárga pontok jelzik az elérhető meteorológiai állomásokat.

Mozgassa az egeret a pont fölött, hogy megjelenjen az állomás neve.

Azután kattintson az időjárási megfigyelések és előrejelzések megtekintéséhez.

A térkép megváltoztatása: kattintson a fekete keresztel jelölt zöld gombra ráközelítéshez, a vonallal jelölt zöld gombra távolításhoz, vagy a zöld nyilakra a szomszédos térképek eléréséhez.


METAR-TAF: